Time;durP1;ratioP1;P1;durP2;ratioP2;P2;SDS_P1;SDS_P2;PMS_P1;PMS_P2;Temp;Humidity;BMP_temperature;BMP_pressure;BME280_temperature;BME280_humidity;BME280_pressure;Samples;Min_cycle;Max_cycle;Signal;HPM_P1;HPM_P2
2024/03/04 00:01:09;;;;;;;11.77;2.88;;;;;;;;;;4993099;28;19912;-82
2024/03/04 00:03:35;;;;;;;13.18;2.60;;;;;;;;;;4980150;28;20014;-83
2024/03/04 00:06:04;;;;;;;11.60;2.97;;;;;;;;;;4991917;28;20069;-82
2024/03/04 00:08:31;;;;;;;10.63;2.58;;;;;;;;;;4980662;28;20029;-83
2024/03/04 00:10:58;;;;;;;11.32;2.47;;;;;;;;;;4973902;28;20037;-83
2024/03/04 00:13:24;;;;;;;14.25;2.85;;;;;;;;;;4972756;28;20034;-84
2024/03/04 00:15:50;;;;;;;10.70;2.88;;;;;;;;;;4970567;28;20116;-84
2024/03/04 00:18:16;;;;;;;10.93;2.80;;;;;;;;;;4973620;28;20600;-85
2024/03/04 00:20:42;;;;;;;12.02;3.03;;;;;;;;;;4977019;28;20036;-84
2024/03/04 00:23:08;;;;;;;13.48;3.63;;;;;;;;;;4976494;28;20029;-84
2024/03/04 00:25:34;;;;;;;15.52;3.38;;;;;;;;;;4995831;28;20034;-84
2024/03/04 00:28:01;;;;;;;15.95;3.13;;;;;;;;;;4994215;28;20029;-82
2024/03/04 00:30:27;;;;;;;11.05;3.33;;;;;;;;;;4989598;28;20049;-82
2024/03/04 00:32:53;;;;;;;12.32;3.83;;;;;;;;;;4979900;28;20046;-84
2024/03/04 00:35:19;;;;;;;12.02;3.08;;;;;;;;;;4991029;28;20029;-83
2024/03/04 00:37:46;;;;;;;11.23;2.80;;;;;;;;;;4990086;28;20041;-84
2024/03/04 00:40:12;;;;;;;12.57;3.50;;;;;;;;;;4986468;28;20052;-84
2024/03/04 00:42:39;;;;;;;12.60;3.30;;;;;;;;;;4986137;28;20034;-84
2024/03/04 00:45:05;;;;;;;11.95;2.78;;;;;;;;;;4967196;28;20068;-84
2024/03/04 00:47:34;;;;;;;14.38;3.70;;;;;;;;;;4972035;28;20030;-83
2024/03/04 00:50:03;;;;;;;13.50;2.95;;;;;;;;;;4972059;28;20030;-83
2024/03/04 00:52:29;;;;;;;12.85;2.70;;;;;;;;;;4987671;28;20084;-82
2024/03/04 00:54:56;;;;;;;13.05;2.70;;;;;;;;;;4966753;28;20056;-83
2024/03/04 00:57:22;;;;;;;12.73;2.40;;;;;;;;;;4981168;28;20122;-83
2024/03/04 00:59:48;;;;;;;11.77;2.38;;;;;;;;;;4999572;28;20034;-83
2024/03/04 01:02:15;;;;;;;15.65;2.80;;;;;;;;;;4969984;28;20029;-83
2024/03/04 01:04:43;;;;;;;13.38;2.80;;;;;;;;;;4989593;28;20042;-84
2024/03/04 01:07:09;;;;;;;15.50;3.00;;;;;;;;;;4963790;28;20080;-83
2024/03/04 01:09:35;;;;;;;11.85;2.78;;;;;;;;;;4985103;28;20037;-83
2024/03/04 01:12:01;;;;;;;;;;;;;;;;;;4966141;28;20844;-83
2024/03/04 01:14:27;;;;;;;12.77;2.58;;;;;;;;;;4976686;28;19916;-83
2024/03/04 01:16:53;;;;;;;10.30;2.30;;;;;;;;;;4984703;28;20029;-82
2024/03/04 01:19:23;;;;;;;11.20;2.60;;;;;;;;;;4969364;28;20605;-83
2024/03/04 01:21:50;;;;;;;12.65;3.33;;;;;;;;;;4988029;28;20033;-83
2024/03/04 01:24:17;;;;;;;;;;;;;;;;;;4968560;28;20029;-83
2024/03/04 01:26:44;;;;;;;10.55;2.30;;;;;;;;;;4975167;28;19917;-83
2024/03/04 01:29:10;;;;;;;13.05;2.53;;;;;;;;;;4988936;28;20025;-81
2024/03/04 01:31:36;;;;;;;9.63;2.25;;;;;;;;;;4990620;28;20021;-82
2024/03/04 01:34:04;;;;;;;12.30;2.30;;;;;;;;;;4972632;28;20103;-82
2024/03/04 01:36:30;;;;;;;11.95;2.70;;;;;;;;;;4994936;28;20029;-82
2024/03/04 01:38:56;;;;;;;11.55;2.58;;;;;;;;;;4973266;28;20191;-82
2024/03/04 01:41:22;;;;;;;10.88;2.22;;;;;;;;;;4993213;28;20149;-82
2024/03/04 01:43:50;;;;;;;8.88;2.15;;;;;;;;;;4974598;28;20029;-83
2024/03/04 01:46:16;;;;;;;10.70;2.83;;;;;;;;;;4975050;28;20045;-82
2024/03/04 01:48:43;;;;;;;9.95;2.70;;;;;;;;;;4996157;28;20500;-83
2024/03/04 01:51:09;;;;;;;;;;;;;;;;;;4992987;28;20038;-83
2024/03/04 01:53:35;;;;;;;11.77;2.60;;;;;;;;;;4978701;28;19920;-82
2024/03/04 01:56:03;;;;;;;12.32;2.50;;;;;;;;;;4974142;28;20045;-82
2024/03/04 01:58:31;;;;;;;10.80;2.95;;;;;;;;;;4973684;28;20052;-83
2024/03/04 02:00:59;;;;;;;15.07;2.38;;;;;;;;;;4989130;28;20029;-82
2024/03/04 02:03:26;;;;;;;11.48;2.50;;;;;;;;;;4980714;28;20400;-83
2024/03/04 02:05:53;;;;;;;11.55;2.58;;;;;;;;;;4994723;28;20058;-82
2024/03/04 02:08:19;;;;;;;12.35;2.97;;;;;;;;;;4974132;28;20184;-82
2024/03/04 02:10:48;;;;;;;11.48;2.47;;;;;;;;;;4991547;28;20116;-83
2024/03/04 02:13:14;;;;;;;11.02;2.53;;;;;;;;;;4986944;28;20067;-83
2024/03/04 02:15:41;;;;;;;11.63;2.45;;;;;;;;;;4979010;28;20064;-83
2024/03/04 02:18:07;;;;;;;11.10;2.85;;;;;;;;;;4977428;28;20085;-82
2024/03/04 02:20:39;;;;;;;12.10;2.60;;;;;;;;;;4986984;28;20124;-82
2024/03/04 02:23:07;;;;;;;13.95;2.50;;;;;;;;;;5001480;28;20030;-81
2024/03/04 02:25:36;;;;;;;10.48;2.40;;;;;;;;;;5006721;28;20045;-83
2024/03/04 02:28:03;;;;;;;13.25;2.85;;;;;;;;;;5003089;28;20026;-82
2024/03/04 02:30:31;;;;;;;10.90;2.65;;;;;;;;;;4993759;28;20057;-82
2024/03/04 02:32:58;;;;;;;8.77;2.20;;;;;;;;;;4989781;28;20041;-82
2024/03/04 02:35:27;;;;;;;10.35;2.72;;;;;;;;;;4996356;28;20036;-82
2024/03/04 02:37:53;;;;;;;12.82;2.70;;;;;;;;;;4989652;28;20041;-81
2024/03/04 02:40:20;;;;;;;13.27;2.65;;;;;;;;;;4994189;28;20064;-83
2024/03/04 02:42:46;;;;;;;12.65;2.67;;;;;;;;;;5006680;28;20030;-83
2024/03/04 02:45:12;;;;;;;10.48;2.50;;;;;;;;;;4976517;28;20026;-82
2024/03/04 02:47:38;;;;;;;11.90;2.58;;;;;;;;;;5000742;28;20649;-83
2024/03/04 02:50:07;;;;;;;11.02;2.70;;;;;;;;;;4978847;28;20034;-82
2024/03/04 02:52:33;;;;;;;11.57;2.85;;;;;;;;;;4999792;28;20071;-82
2024/03/04 02:55:00;;;;;;;11.75;2.58;;;;;;;;;;4996112;28;20082;-82
2024/03/04 02:57:26;;;;;;;13.50;2.88;;;;;;;;;;4994633;28;20034;-82
2024/03/04 02:59:52;;;;;;;12.43;3.00;;;;;;;;;;4983213;28;20084;-82
2024/03/04 03:02:18;;;;;;;15.57;2.78;;;;;;;;;;4993123;28;20030;-83
2024/03/04 03:04:44;;;;;;;10.90;2.90;;;;;;;;;;4979410;28;20034;-82
2024/03/04 03:07:11;;;;;;;10.65;2.17;;;;;;;;;;4977574;28;20077;-82
2024/03/04 03:09:37;;;;;;;11.05;2.65;;;;;;;;;;4976942;28;20120;-81
2024/03/04 03:12:03;;;;;;;11.90;3.05;;;;;;;;;;4977405;28;20206;-82
2024/03/04 03:14:29;;;;;;;17.23;3.10;;;;;;;;;;4974352;28;20029;-81
2024/03/04 03:16:55;;;;;;;12.63;2.85;;;;;;;;;;4975936;28;20036;-84
2024/03/04 03:19:22;;;;;;;13.52;2.60;;;;;;;;;;4975750;28;20036;-82
2024/03/04 03:21:48;;;;;;;12.63;2.90;;;;;;;;;;4992534;28;20038;-83
2024/03/04 03:24:15;;;;;;;10.50;2.53;;;;;;;;;;4988418;28;20609;-84
2024/03/04 03:26:41;;;;;;;11.50;2.72;;;;;;;;;;4986455;28;20029;-83
2024/03/04 03:29:09;;;;;;;13.20;2.60;;;;;;;;;;4974781;28;20026;-84
2024/03/04 03:31:35;;;;;;;12.13;2.38;;;;;;;;;;4994122;28;20657;-81
2024/03/04 03:34:01;;;;;;;13.35;2.60;;;;;;;;;;4971854;28;20033;-82
2024/03/04 03:36:27;;;;;;;12.07;2.45;;;;;;;;;;4978723;28;20244;-84
2024/03/04 03:38:54;;;;;;;11.82;2.88;;;;;;;;;;4991614;28;20072;-83
2024/03/04 03:41:20;;;;;;;11.45;2.85;;;;;;;;;;4977152;28;20822;-84
2024/03/04 03:43:46;;;;;;;12.13;2.33;;;;;;;;;;4979121;28;20044;-83
2024/03/04 03:46:12;;;;;;;12.25;2.65;;;;;;;;;;4989296;28;20044;-83
2024/03/04 03:48:38;;;;;;;14.38;3.10;;;;;;;;;;4973689;28;20559;-82
2024/03/04 03:51:04;;;;;;;14.77;3.10;;;;;;;;;;4969176;28;20037;-82
2024/03/04 03:53:33;;;;;;;14.55;2.65;;;;;;;;;;4979528;28;20040;-83
2024/03/04 03:55:59;;;;;;;14.98;2.65;;;;;;;;;;4987817;28;20033;-82
2024/03/04 03:58:25;;;;;;;10.98;2.28;;;;;;;;;;4972405;28;20426;-83
2024/03/04 04:00:52;;;;;;;13.70;2.42;;;;;;;;;;4976560;28;20033;-81
2024/03/04 04:03:18;;;;;;;12.52;2.78;;;;;;;;;;4992715;28;20597;-84
2024/03/04 04:05:44;;;;;;;10.07;2.40;;;;;;;;;;4993024;28;20037;-83
2024/03/04 04:08:10;;;;;;;13.30;2.60;;;;;;;;;;4982973;28;20037;-84
2024/03/04 04:10:37;;;;;;;9.48;2.40;;;;;;;;;;4995776;28;20449;-81
2024/03/04 04:13:03;;;;;;;11.13;2.70;;;;;;;;;;4986806;28;20034;-83
2024/03/04 04:15:29;;;;;;;10.93;2.70;;;;;;;;;;4974136;28;20029;-81
2024/03/04 04:17:55;;;;;;;11.50;2.58;;;;;;;;;;4977683;28;20060;-81
2024/03/04 04:20:21;;;;;;;13.48;3.05;;;;;;;;;;4994865;28;20644;-82
2024/03/04 04:22:47;;;;;;;10.90;2.22;;;;;;;;;;4974949;28;20148;-82
2024/03/04 04:25:13;;;;;;;11.07;2.28;;;;;;;;;;4980919;28;20029;-82
2024/03/04 04:27:39;;;;;;;11.63;2.80;;;;;;;;;;4976521;28;20135;-82
2024/03/04 04:30:09;;;;;;;13.55;2.80;;;;;;;;;;4972583;28;20026;-83
2024/03/04 04:32:35;;;;;;;9.48;2.53;;;;;;;;;;4991400;28;20560;-82
2024/03/04 04:35:02;;;;;;;13.77;2.50;;;;;;;;;;4977211;28;20025;-83
2024/03/04 04:37:29;;;;;;;9.70;2.67;;;;;;;;;;4983674;28;20409;-83
2024/03/04 04:39:55;;;;;;;12.45;2.50;;;;;;;;;;4993251;28;20026;-84
2024/03/04 04:42:22;;;;;;;11.20;2.55;;;;;;;;;;4977549;28;20034;-84
2024/03/04 04:44:48;;;;;;;11.82;2.58;;;;;;;;;;4976530;28;20414;-84
2024/03/04 04:47:14;;;;;;;13.15;2.63;;;;;;;;;;4976370;28;20044;-84
2024/03/04 04:49:41;;;;;;;14.23;2.90;;;;;;;;;;4995578;28;20037;-84
2024/03/04 04:52:07;;;;;;;12.20;3.00;;;;;;;;;;4973876;28;20045;-83
2024/03/04 04:54:33;;;;;;;11.35;2.65;;;;;;;;;;4992421;28;20064;-84
2024/03/04 04:56:59;;;;;;;10.38;2.58;;;;;;;;;;4974074;28;20049;-82
2024/03/04 04:59:25;;;;;;;10.73;2.50;;;;;;;;;;4972340;28;20033;-81
2024/03/04 05:01:51;;;;;;;16.83;2.65;;;;;;;;;;4971513;28;20041;-82
2024/03/04 05:04:18;;;;;;;12.25;2.50;;;;;;;;;;4964570;28;20021;-82
2024/03/04 05:06:45;;;;;;;12.52;3.00;;;;;;;;;;4966496;28;20071;-81
2024/03/04 05:09:11;;;;;;;14.07;2.72;;;;;;;;;;4970503;28;20116;-81
2024/03/04 05:11:37;;;;;;;11.77;2.70;;;;;;;;;;4976948;28;20034;-82
2024/03/04 05:14:04;;;;;;;11.27;2.50;;;;;;;;;;4968925;28;20044;-81
2024/03/04 05:16:30;;;;;;;13.82;2.67;;;;;;;;;;4978789;28;20041;-82
2024/03/04 05:18:56;;;;;;;12.07;2.53;;;;;;;;;;4968816;28;20030;-82
2024/03/04 05:21:22;;;;;;;14.50;2.75;;;;;;;;;;4987199;28;20018;-82
2024/03/04 05:23:48;;;;;;;11.32;3.08;;;;;;;;;;4975398;28;20048;-82
2024/03/04 05:26:15;;;;;;;13.32;2.78;;;;;;;;;;4970098;28;20084;-82
2024/03/04 05:28:41;;;;;;;9.85;2.50;;;;;;;;;;4993220;28;20121;-82
2024/03/04 05:31:07;;;;;;;11.40;2.58;;;;;;;;;;4989412;28;20123;-82
2024/03/04 05:33:36;;;;;;;13.68;2.72;;;;;;;;;;4992614;28;20046;-82
2024/03/04 05:36:04;;;;;;;13.18;2.72;;;;;;;;;;4974974;28;20041;-82
2024/03/04 05:38:32;;;;;;;12.65;2.47;;;;;;;;;;4975592;28;20038;-82
2024/03/04 05:40:58;;;;;;;10.23;2.30;;;;;;;;;;4971982;28;20038;-82
2024/03/04 05:43:24;;;;;;;10.52;2.55;;;;;;;;;;4973450;28;20822;-82
2024/03/04 05:45:50;;;;;;;9.90;2.20;;;;;;;;;;4974749;28;20069;-82
2024/03/04 05:48:16;;;;;;;11.20;2.45;;;;;;;;;;4972261;28;20589;-83
2024/03/04 05:50:42;;;;;;;15.95;2.95;;;;;;;;;;4984998;28;20037;-84
2024/03/04 05:53:08;;;;;;;12.43;2.72;;;;;;;;;;4989304;28;20030;-82
2024/03/04 05:55:35;;;;;;;12.95;3.20;;;;;;;;;;4978370;28;20095;-82
2024/03/04 05:58:01;;;;;;;14.35;3.78;;;;;;;;;;4991098;28;20026;-83
2024/03/04 06:00:30;;;;;;;13.15;3.22;;;;;;;;;;4977100;28;20068;-82
2024/03/04 06:02:57;;;;;;;12.45;2.65;;;;;;;;;;4971697;28;20060;-83
2024/03/04 06:05:23;;;;;;;;;;;;;;;;;;4991682;28;20137;-82
2024/03/04 06:07:49;;;;;;;13.45;2.85;;;;;;;;;;4985765;28;19939;-83
2024/03/04 06:10:16;;;;;;;12.60;3.00;;;;;;;;;;4993458;28;20037;-83
2024/03/04 06:12:42;;;;;;;12.82;3.00;;;;;;;;;;4979443;28;20111;-82
2024/03/04 06:15:08;;;;;;;12.70;2.92;;;;;;;;;;4991020;28;20025;-83
2024/03/04 06:17:34;;;;;;;11.68;2.58;;;;;;;;;;4994857;28;20037;-83
2024/03/04 06:20:01;;;;;;;10.68;2.67;;;;;;;;;;4993162;28;20029;-82
2024/03/04 06:22:27;;;;;;;10.30;2.47;;;;;;;;;;4974797;28;20206;-83
2024/03/04 06:24:53;;;;;;;11.13;2.33;;;;;;;;;;4990166;28;20057;-82
2024/03/04 06:27:19;;;;;;;13.30;2.92;;;;;;;;;;4972338;28;20287;-82
2024/03/04 06:29:45;;;;;;;15.18;3.03;;;;;;;;;;4974587;28;20124;-82
2024/03/04 06:32:11;;;;;;;11.52;2.72;;;;;;;;;;4988188;28;20379;-81
2024/03/04 06:34:40;;;;;;;10.85;2.40;;;;;;;;;;4989067;28;20033;-82
2024/03/04 06:37:07;;;;;;;10.38;1.98;;;;;;;;;;4973183;28;20040;-82
2024/03/04 06:39:34;;;;;;;11.20;2.30;;;;;;;;;;4987728;28;20033;-83
2024/03/04 06:42:00;;;;;;;10.77;2.17;;;;;;;;;;4989609;28;20030;-81
2024/03/04 06:44:26;;;;;;;10.43;2.30;;;;;;;;;;4973584;28;20048;-82
2024/03/04 06:46:52;;;;;;;10.50;2.42;;;;;;;;;;4973096;28;20032;-83
2024/03/04 06:49:18;;;;;;;11.20;2.50;;;;;;;;;;4988668;28;20030;-83
2024/03/04 06:51:44;;;;;;;9.73;2.45;;;;;;;;;;4975743;28;20036;-82
2024/03/04 06:54:10;;;;;;;11.50;2.17;;;;;;;;;;4988952;28;20167;-82
2024/03/04 06:56:36;;;;;;;12.23;2.25;;;;;;;;;;4988339;28;20033;-81
2024/03/04 06:59:03;;;;;;;8.40;1.85;;;;;;;;;;4985013;28;20524;-83
2024/03/04 07:01:30;;;;;;;9.60;2.15;;;;;;;;;;4971968;28;20042;-84
2024/03/04 07:03:56;;;;;;;10.13;2.10;;;;;;;;;;4984854;28;20021;-83
2024/03/04 07:06:23;;;;;;;10.70;2.28;;;;;;;;;;4972195;28;20049;-81
2024/03/04 07:08:49;;;;;;;11.85;2.50;;;;;;;;;;4988639;28;20509;-83
2024/03/04 07:11:19;;;;;;;11.27;2.38;;;;;;;;;;4969673;28;20037;-82
2024/03/04 07:13:45;;;;;;;9.75;2.25;;;;;;;;;;4971401;28;20049;-83
2024/03/04 07:16:11;;;;;;;;;;;;;;;;;;4970769;28;20037;-80
2024/03/04 07:18:37;;;;;;;8.85;1.98;;;;;;;;;;4983958;28;20027;-80
2024/03/04 07:21:05;;;;;;;12.80;2.35;;;;;;;;;;4968500;28;20025;-82
2024/03/04 07:23:31;;;;;;;12.23;2.30;;;;;;;;;;4968905;28;21379;-81
2024/03/04 07:25:57;;;;;;;12.00;2.38;;;;;;;;;;4968266;28;20040;-81
2024/03/04 07:28:23;;;;;;;9.77;2.05;;;;;;;;;;4976751;28;20033;-81
2024/03/04 07:30:49;;;;;;;10.43;2.10;;;;;;;;;;4968418;28;20033;-82
2024/03/04 07:33:15;;;;;;;;;;;;;;;;;;4964906;28;20590;-81
2024/03/04 07:35:42;;;;;;;10.80;2.20;;;;;;;;;;4969356;28;19968;-83
2024/03/04 07:38:08;;;;;;;;;;;;;;;;;;4983206;28;20092;-82
2024/03/04 07:40:34;;;;;;;12.20;2.17;;;;;;;;;;4974209;28;19957;-83
2024/03/04 07:43:03;;;;;;;12.73;2.33;;;;;;;;;;4967862;28;20911;-80
2024/03/04 07:45:30;;;;;;;8.52;1.88;;;;;;;;;;4976653;28;20092;-81
2024/03/04 07:47:56;;;;;;;10.32;2.20;;;;;;;;;;4967691;28;20580;-81
2024/03/04 07:50:23;;;;;;;13.38;2.28;;;;;;;;;;4966974;28;20116;-81
2024/03/04 07:52:49;;;;;;;9.48;2.30;;;;;;;;;;4970306;28;20029;-81
2024/03/04 07:55:18;;;;;;;10.82;2.28;;;;;;;;;;4965996;28;20088;-81
2024/03/04 07:57:45;;;;;;;9.07;1.90;;;;;;;;;;4985868;28;20045;-82
2024/03/04 08:00:13;;;;;;;10.85;2.17;;;;;;;;;;4973738;28;20026;-82
2024/03/04 08:02:41;;;;;;;9.25;2.10;;;;;;;;;;4969087;28;20558;-82
2024/03/04 08:05:07;;;;;;;11.52;2.20;;;;;;;;;;4983637;28;20029;-82
2024/03/04 08:07:33;;;;;;;10.77;2.40;;;;;;;;;;4986093;28;20044;-82
2024/03/04 08:09:59;;;;;;;11.70;2.40;;;;;;;;;;4968442;28;20037;-82
2024/03/04 08:12:25;;;;;;;9.27;2.92;;;;;;;;;;4978049;28;20022;-84
2024/03/04 08:14:51;;;;;;;12.15;2.70;;;;;;;;;;4983891;28;20854;-83
2024/03/04 08:17:17;;;;;;;12.60;2.55;;;;;;;;;;4966739;28;20040;-84
2024/03/04 08:19:48;;;;;;;10.05;2.08;;;;;;;;;;4968501;28;20037;-81
2024/03/04 08:22:14;;;;;;;9.75;1.90;;;;;;;;;;4968911;28;21523;-81
2024/03/04 08:24:43;;;;;;;9.30;1.80;;;;;;;;;;4969969;28;20037;-82
2024/03/04 08:27:09;;;;;;;10.20;2.13;;;;;;;;;;4967374;28;20504;-82
2024/03/04 08:29:35;;;;;;;9.30;2.05;;;;;;;;;;4967809;28;20044;-82
2024/03/04 08:32:01;;;;;;;11.23;2.20;;;;;;;;;;4985377;28;20028;-81
2024/03/04 08:34:29;;;;;;;;;;;;;;;;;;4972633;28;20030;-82
2024/03/04 08:36:55;;;;;;;13.07;2.20;;;;;;;;;;4973251;28;19929;-83
2024/03/04 08:39:21;;;;;;;8.70;2.10;;;;;;;;;;4975468;28;20116;-81
2024/03/04 08:41:48;;;;;;;7.82;1.83;;;;;;;;;;4971645;28;20025;-82
2024/03/04 08:44:15;;;;;;;9.48;1.90;;;;;;;;;;4968841;28;20034;-81
2024/03/04 08:46:41;;;;;;;8.90;2.17;;;;;;;;;;4979891;28;20026;-82
2024/03/04 08:49:07;;;;;;;;;;;;;;;;;;4971603;28;20113;-82
2024/03/04 08:51:33;;;;;;;8.32;1.80;;;;;;;;;;4990482;28;19927;-81
2024/03/04 08:53:59;;;;;;;10.00;2.00;;;;;;;;;;4969890;28;20204;-82
2024/03/04 08:56:27;;;;;;;;;;;;;;;;;;4972070;28;20022;-82
2024/03/04 08:58:56;;;;;;;7.95;2.00;;;;;;;;;;4985828;28;21176;-82
2024/03/04 09:01:24;;;;;;;9.85;1.98;;;;;;;;;;4972096;28;20125;-81
2024/03/04 09:03:50;;;;;;;8.57;1.92;;;;;;;;;;4972660;28;20067;-81
2024/03/04 09:06:16;;;;;;;;;;;;;;;;;;4981469;28;20629;-82
2024/03/04 09:08:42;;;;;;;8.10;1.70;;;;;;;;;;4976981;28;19922;-81
2024/03/04 09:11:12;;;;;;;9.85;1.88;;;;;;;;;;4967131;28;20040;-82
2024/03/04 09:13:39;;;;;;;8.45;1.75;;;;;;;;;;4964718;28;20041;-82
2024/03/04 09:16:06;;;;;;;7.32;1.55;;;;;;;;;;4987172;28;20040;-83
2024/03/04 09:18:33;;;;;;;11.38;1.95;;;;;;;;;;4969078;28;20030;-82
2024/03/04 09:20:59;;;;;;;7.97;1.52;;;;;;;;;;4986017;28;20052;-84
2024/03/04 09:23:25;;;;;;;8.93;1.40;;;;;;;;;;4971792;28;20488;-84
2024/03/04 09:25:51;;;;;;;9.20;1.60;;;;;;;;;;4973416;28;20232;-83
2024/03/04 09:28:18;;;;;;;11.30;1.65;;;;;;;;;;4967682;28;20034;-82
2024/03/04 09:30:45;;;;;;;8.60;1.60;;;;;;;;;;4967187;28;20017;-82
2024/03/04 09:33:11;;;;;;;6.53;1.30;;;;;;;;;;4982737;28;20041;-82
2024/03/04 09:35:37;;;;;;;7.78;1.42;;;;;;;;;;4986665;28;20022;-82
2024/03/04 09:38:04;;;;;;;9.63;2.15;;;;;;;;;;4966954;28;20029;-83
2024/03/04 09:40:30;;;;;;;7.65;1.33;;;;;;;;;;4973069;28;20025;-83
2024/03/04 09:42:57;;;;;;;8.32;1.75;;;;;;;;;;4978910;28;20474;-82
2024/03/04 09:45:25;;;;;;;9.20;1.67;;;;;;;;;;4988136;28;20030;-84
2024/03/04 09:47:55;;;;;;;8.32;1.55;;;;;;;;;;4978391;28;20734;-84
2024/03/04 09:50:22;;;;;;;7.05;1.50;;;;;;;;;;4980458;28;20444;-83
2024/03/04 09:52:51;;;;;;;9.80;1.77;;;;;;;;;;4997477;28;20109;-83
2024/03/04 09:55:18;;;;;;;8.18;1.45;;;;;;;;;;4982146;28;20958;-83
2024/03/04 09:57:45;;;;;;;6.07;1.20;;;;;;;;;;4983036;28;20048;-83
2024/03/04 10:00:14;;;;;;;6.18;1.30;;;;;;;;;;4981962;28;20029;-84
2024/03/04 10:02:41;;;;;;;7.28;1.50;;;;;;;;;;4978909;28;20723;-83
2024/03/04 10:05:08;;;;;;;8.32;1.70;;;;;;;;;;4975586;28;20419;-83
2024/03/04 10:07:35;;;;;;;7.78;1.40;;;;;;;;;;4989933;28;20065;-83
2024/03/04 10:10:02;;;;;;;7.15;1.35;;;;;;;;;;4995902;28;20129;-83
2024/03/04 10:12:28;;;;;;;8.98;1.83;;;;;;;;;;4995647;28;20032;-82
2024/03/04 10:15:09;;;;;;;8.45;1.40;;;;;;;;;;5006100;28;20045;-82
2024/03/04 10:17:35;;;;;;;9.88;1.50;;;;;;;;;;5000952;28;20066;-82
2024/03/04 10:20:03;;;;;;;7.90;1.58;;;;;;;;;;4994015;28;20036;-83
2024/03/04 10:22:35;;;;;;;6.95;1.92;;;;;;;;;;5001994;28;20026;-82
2024/03/04 10:25:03;;;;;;;6.38;1.60;;;;;;;;;;4994107;28;20025;-83
2024/03/04 10:27:30;;;;;;;8.07;2.03;;;;;;;;;;4998034;28;20521;-83
2024/03/04 10:30:11;;;;;;;8.48;1.40;;;;;;;;;;4989421;28;20040;-83
2024/03/04 10:32:37;;;;;;;6.93;1.88;;;;;;;;;;4996971;28;20037;-85
2024/03/04 10:35:04;;;;;;;6.00;1.33;;;;;;;;;;4996977;28;20034;-83
2024/03/04 10:37:33;;;;;;;9.38;1.70;;;;;;;;;;4993196;28;20042;-82
2024/03/04 10:40:00;;;;;;;9.10;1.70;;;;;;;;;;4990792;28;20125;-83
2024/03/04 10:42:26;;;;;;;7.32;1.75;;;;;;;;;;4987814;28;20018;-83
2024/03/04 10:44:55;;;;;;;8.38;1.77;;;;;;;;;;4998594;28;20530;-83
2024/03/04 10:47:24;;;;;;;8.98;2.22;;;;;;;;;;4991230;28;20018;-83
2024/03/04 10:49:50;;;;;;;6.20;1.55;;;;;;;;;;4993464;28;20692;-83
2024/03/04 10:52:17;;;;;;;7.03;1.33;;;;;;;;;;4992320;28;20498;-83
2024/03/04 10:54:43;;;;;;;5.40;1.05;;;;;;;;;;4993197;28;20406;-85
2024/03/04 10:57:26;;;;;;;5.55;1.52;;;;;;;;;;4988928;28;20695;-83
2024/03/04 10:59:56;;;;;;;5.57;1.50;;;;;;;;;;4995304;28;20115;-83
2024/03/04 11:02:42;;;;;;;6.53;2.00;;;;;;;;;;4992782;28;20033;-83
2024/03/04 11:05:12;;;;;;;9.18;1.73;;;;;;;;;;4977914;28;20125;-82
2024/03/04 11:07:41;;;;;;;7.30;1.90;;;;;;;;;;4989105;28;20141;-83
2024/03/04 11:10:15;;;;;;;6.97;2.03;;;;;;;;;;4990897;28;20025;-83
2024/03/04 11:12:42;;;;;;;8.65;2.10;;;;;;;;;;4973444;28;20445;-83
2024/03/04 11:15:10;;;;;;;5.07;1.40;;;;;;;;;;4988103;28;20220;-82
2024/03/04 11:17:45;;;;;;;5.28;1.38;;;;;;;;;;5002645;28;20038;-83
2024/03/04 11:20:14;;;;;;;5.50;1.25;;;;;;;;;;4983424;28;20034;-83
2024/03/04 11:22:43;;;;;;;6.55;1.50;;;;;;;;;;4986022;28;20474;-83
2024/03/04 11:25:09;;;;;;;6.00;1.40;;;;;;;;;;4975479;28;20780;-82
2024/03/04 11:27:36;;;;;;;4.30;1.30;;;;;;;;;;4982156;28;20049;-83
2024/03/04 11:30:05;;;;;;;6.30;1.25;;;;;;;;;;4976738;28;20056;-82
2024/03/04 11:32:32;;;;;;;4.88;1.33;;;;;;;;;;4989480;28;20028;-84
2024/03/04 11:35:00;;;;;;;5.93;1.60;;;;;;;;;;5006465;28;20056;-82
2024/03/04 11:37:30;;;;;;;6.18;1.33;;;;;;;;;;4999030;28;20026;-81
2024/03/04 11:39:57;;;;;;;3.90;0.80;;;;;;;;;;4987427;28;20142;-82
2024/03/04 11:42:38;;;;;;;5.40;1.40;;;;;;;;;;5004407;28;20032;-82
2024/03/04 11:45:08;;;;;;;5.32;1.17;;;;;;;;;;4975216;28;20049;-81
2024/03/04 11:47:34;;;;;;;5.20;1.02;;;;;;;;;;4970829;28;20060;-81
2024/03/04 11:50:05;;;;;;;5.95;1.33;;;;;;;;;;4968788;28;20037;-81
2024/03/04 11:52:35;;;;;;;5.75;1.35;;;;;;;;;;4971709;28;20014;-81
2024/03/04 11:55:01;;;;;;;8.18;2.35;;;;;;;;;;4982679;28;20065;-80
2024/03/04 11:57:27;;;;;;;5.95;1.80;;;;;;;;;;4970572;28;20128;-80
2024/03/04 12:00:00;;;;;;;3.53;0.82;;;;;;;;;;4990015;28;20033;-81
2024/03/04 12:02:27;;;;;;;4.63;1.10;;;;;;;;;;4987955;28;20409;-81
2024/03/04 12:04:53;;;;;;;3.85;1.00;;;;;;;;;;4988354;28;20034;-81
2024/03/04 12:07:21;;;;;;;4.22;0.98;;;;;;;;;;4966060;28;20050;-80
2024/03/04 12:09:48;;;;;;;4.00;0.93;;;;;;;;;;4984545;28;20615;-82
2024/03/04 12:12:17;;;;;;;2.58;0.68;;;;;;;;;;4987056;28;20829;-81
2024/03/04 12:14:44;;;;;;;5.60;1.17;;;;;;;;;;4967024;28;20065;-81
2024/03/04 12:17:11;;;;;;;4.43;1.30;;;;;;;;;;4969339;28;20034;-82
2024/03/04 12:19:38;;;;;;;2.83;0.88;;;;;;;;;;4988513;28;20127;-81
2024/03/04 12:22:04;;;;;;;3.83;1.00;;;;;;;;;;4971554;28;20095;-82
2024/03/04 12:24:31;;;;;;;4.30;1.00;;;;;;;;;;4987704;28;20148;-81
2024/03/04 12:26:57;;;;;;;5.20;1.55;;;;;;;;;;4966632;28;20036;-82
2024/03/04 12:29:24;;;;;;;4.82;1.27;;;;;;;;;;4968731;28;20036;-82
2024/03/04 12:31:53;;;;;;;5.57;1.85;;;;;;;;;;4966492;28;20087;-82
2024/03/04 12:34:20;;;;;;;4.22;1.08;;;;;;;;;;4969632;28;20131;-81
2024/03/04 12:36:50;;;;;;;3.55;1.00;;;;;;;;;;4969718;28;20050;-81
2024/03/04 12:39:19;;;;;;;6.28;1.40;;;;;;;;;;4985870;28;20689;-82
2024/03/04 12:41:45;;;;;;;5.38;1.00;;;;;;;;;;4988649;28;20033;-81
2024/03/04 12:44:11;;;;;;;4.35;1.40;;;;;;;;;;4976112;28;20038;-81
2024/03/04 12:46:37;;;;;;;5.38;1.58;;;;;;;;;;4989851;28;20632;-82
2024/03/04 12:49:04;;;;;;;4.53;1.00;;;;;;;;;;4967896;28;20041;-83
2024/03/04 12:51:35;;;;;;;4.07;0.90;;;;;;;;;;4978646;28;20741;-83
2024/03/04 12:54:03;;;;;;;4.20;1.35;;;;;;;;;;4968210;28;20513;-82
2024/03/04 12:56:29;;;;;;;4.32;1.30;;;;;;;;;;4984808;28;20104;-82
2024/03/04 12:58:55;;;;;;;4.75;1.50;;;;;;;;;;4985612;28;20061;-83
2024/03/04 13:01:23;;;;;;;5.63;1.70;;;;;;;;;;4976656;28;20076;-81
2024/03/04 13:03:49;;;;;;;3.15;0.60;;;;;;;;;;4972621;28;20030;-84
2024/03/04 13:06:15;;;;;;;5.05;1.10;;;;;;;;;;4966653;28;20085;-83
2024/03/04 13:08:42;;;;;;;6.80;1.48;;;;;;;;;;4972107;28;20849;-82
2024/03/04 13:11:08;;;;;;;2.83;0.80;;;;;;;;;;4970641;28;20033;-81
2024/03/04 13:13:34;;;;;;;1.60;0.47;;;;;;;;;;4979546;28;20045;-82
2024/03/04 13:16:00;;;;;;;3.95;0.80;;;;;;;;;;4966537;28;20096;-82
2024/03/04 13:18:27;;;;;;;3.78;0.80;;;;;;;;;;4972448;28;20533;-83
2024/03/04 13:20:53;;;;;;;2.78;0.75;;;;;;;;;;4972817;28;20026;-83
2024/03/04 13:23:19;;;;;;;4.15;1.17;;;;;;;;;;4971967;28;20104;-82
2024/03/04 13:25:46;;;;;;;4.85;1.02;;;;;;;;;;4966917;28;20500;-84
2024/03/04 13:28:12;;;;;;;1.20;0.60;;;;;;;;;;4982125;28;20013;-82
2024/03/04 13:30:38;;;;;;;4.38;0.80;;;;;;;;;;4977130;28;20084;-84
2024/03/04 13:33:04;;;;;;;6.55;1.50;;;;;;;;;;4972321;28;20081;-82
2024/03/04 13:35:30;;;;;;;3.70;1.00;;;;;;;;;;4976376;28;20041;-82
2024/03/04 13:37:57;;;;;;;4.55;1.42;;;;;;;;;;4989332;28;20166;-82
2024/03/04 13:40:23;;;;;;;4.20;1.10;;;;;;;;;;4992056;28;20029;-82
2024/03/04 13:42:49;;;;;;;3.20;1.10;;;;;;;;;;4990210;28;20133;-82
2024/03/04 13:45:16;;;;;;;4.75;1.08;;;;;;;;;;4987283;28;20037;-82
2024/03/04 13:47:42;;;;;;;3.80;1.30;;;;;;;;;;4968617;28;20037;-82
2024/03/04 13:50:10;;;;;;;4.35;1.13;;;;;;;;;;4968837;28;20125;-82
2024/03/04 13:52:36;;;;;;;3.50;0.82;;;;;;;;;;4970377;28;20040;-82
2024/03/04 13:55:02;;;;;;;2.78;0.90;;;;;;;;;;4969569;28;20091;-83
2024/03/04 13:57:28;;;;;;;2.58;0.75;;;;;;;;;;4978370;28;20167;-82
2024/03/04 13:59:54;;;;;;;3.70;0.90;;;;;;;;;;4969100;28;20103;-83
2024/03/04 14:02:21;;;;;;;2.88;0.82;;;;;;;;;;4968055;28;20033;-82
2024/03/04 14:04:47;;;;;;;3.88;0.80;;;;;;;;;;4989391;28;20066;-83
2024/03/04 14:07:13;;;;;;;2.75;0.70;;;;;;;;;;4968609;28;20722;-82
2024/03/04 14:09:39;;;;;;;2.30;0.55;;;;;;;;;;4989226;28;20041;-82
2024/03/04 14:12:05;;;;;;;4.68;1.10;;;;;;;;;;4981190;28;20112;-82
2024/03/04 14:14:31;;;;;;;2.33;0.55;;;;;;;;;;4985831;28;20045;-83
2024/03/04 14:16:57;;;;;;;3.28;0.88;;;;;;;;;;4965728;28;20057;-82
2024/03/04 14:19:23;;;;;;;2.88;0.60;;;;;;;;;;4970108;28;20066;-82
2024/03/04 14:21:49;;;;;;;3.22;0.70;;;;;;;;;;4969191;28;20030;-82
2024/03/04 14:24:16;;;;;;;2.88;0.63;;;;;;;;;;4969984;28;20026;-83
2024/03/04 14:26:42;;;;;;;2.88;0.80;;;;;;;;;;4968473;28;20033;-83
2024/03/04 14:29:08;;;;;;;2.65;0.70;;;;;;;;;;4988211;28;20040;-82
2024/03/04 14:31:34;;;;;;;4.68;1.25;;;;;;;;;;4985805;28;20045;-81
2024/03/04 14:34:00;;;;;;;5.18;1.45;;;;;;;;;;4967626;28;20052;-82
2024/03/04 14:36:28;;;;;;;4.90;1.20;;;;;;;;;;4989185;28;20061;-81
2024/03/04 14:38:54;;;;;;;4.38;1.20;;;;;;;;;;4977223;28;20561;-82